Latest Weather Observations for Hogan Island

IDV60801

Issued at 8:52 am EST Saturday 24 August 2019 (issued every 10 minutes, with the page automatically refreshed every 10 minutes)

About weather observations | Map of weather stations | Latest weather observations for VIC | Other Formats
Station Details ID: 200838 Name: HOGAN ISLAND Lat: -39.22 Lon: 146.98 Height: 116.0 m
Data from the previous 72 hours. | See also: Recent months at Hogan Island
Date/Time
EST
Temp
°C
App
Temp
°C
Dew
Point
°C
Rel
Hum
%
Delta-T
°C
Wind Press
QNH
hPa
Press
MSL
hPa
Rain since
9am
mm
Dir  Spd
km/h
Gust
km/h
Spd
kts
Gust
kts
24/08:35am 12.3 3.2 5.7 64 3.1 NNW 43 61 23 33 1013.0 - 0.0
24/08:30am 12.1 3.4 5.9 66 2.9 NNW 41 50 22 27 1013.2 - 0.0
24/08:00am 11.8 2.5 5.9 67 2.8 NNW 44 57 24 31 1013.5 - 0.0
24/07:30am 11.3 2.0 5.8 69 2.6 NW 44 52 24 28 1013.7 - 0.0
24/07:00am 11.2 1.1 5.7 69 2.6 NW 48 59 26 32 1013.6 - 0.0
24/06:30am 11.4 -0.1 6.1 70 2.5 WNW 56 72 30 39 1013.2 - 0.0
24/06:00am 11.3 -1.6 5.8 69 2.6 WNW 63 74 34 40 1013.3 1013.4 0.0
24/05:30am 11.2 -0.6 5.9 70 2.5 WNW 57 69 31 37 1013.6 - 0.0
24/05:00am 11.3 -0.3 5.8 69 2.6 NW 56 69 30 37 1013.9 - 0.0
24/04:30am 11.0 0.2 6.0 71 2.3 WNW 52 65 28 35 1014.3 - 0.0
24/04:00am 11.0 0.1 5.7 70 2.5 WNW 52 63 28 34 1014.4 - 0.0
24/03:30am 11.2 0.1 6.3 72 2.3 WNW 54 65 29 35 1014.5 - 0.0
24/03:00am 10.9 0.8 7.2 78 1.8 NW 50 63 27 34 1014.5 1014.6 0.0
24/02:30am 10.5 1.8 7.6 82 1.4 NW 43 54 23 29 1015.4 - 0.0
24/02:00am 10.0 2.1 7.9 87 1.0 NW 39 50 21 27 1015.7 - 0.0
24/01:30am 10.3 1.5 8.1 86 1.1 WNW 44 54 24 29 1015.7 - 0.0
24/01:00am 9.8 3.4 9.3 97 0.2 NW 33 46 18 25 1016.3 - 0.0
24/12:30am 9.7 3.0 9.6 99 0.1 NW 35 41 19 22 1016.9 - 0.0
24/12:00am 9.6 3.2 9.5 99 0.0 NW 33 39 18 21 1017.0 1017.1 0.0
 
Date/Time
EST
Temp
°C
App
Temp
°C
Dew
Point
°C
Rel
Hum
%
Delta-T
°C
Wind Press
QNH
hPa
Press
MSL
hPa
Rain since
9am
mm
Dir  Spd
km/h
Gust
km/h
Spd
kts
Gust
kts
23/11:30pm 9.5 1.6 9.4 99 0.0 NW 41 44 22 24 1017.1 - 0.0
23/11:00pm 9.6 3.4 9.5 99 0.1 NNW 32 41 17 22 1017.4 - 0.0
23/10:30pm 9.6 2.9 9.5 99 0.1 NW 35 39 19 21 1017.7 - 0.0
23/10:00pm 9.6 6.7 9.5 99 0.1 NNW 15 22 8 12 1017.9 - 0.0
23/09:30pm 9.3 5.3 9.2 99 0.0 NW 20 26 11 14 1018.3 - 0.0
23/09:00pm 9.8 4.1 9.7 99 0.1 WNW 30 33 16 18 1018.4 1018.6 0.0
23/08:30pm 9.7 3.9 9.6 99 0.1 WNW 30 35 16 19 1018.8 - 0.0
23/08:00pm 9.7 3.3 9.4 98 0.1 W 33 39 18 21 1019.0 - 0.0
23/07:30pm 9.5 3.1 9.2 98 0.1 W 33 39 18 21 1019.0 - 0.0
23/07:00pm 9.4 2.9 8.9 97 0.2 W 33 39 18 21 1018.9 - 0.0
23/06:30pm 9.3 1.9 8.4 94 0.4 W 37 41 20 22 1018.8 - 0.0
23/06:00pm 9.3 1.0 7.9 91 0.7 W 41 46 22 25 1018.7 1018.9 0.0
23/05:30pm 9.4 -0.3 7.5 88 0.9 W 48 54 26 29 1018.6 - 0.0
23/05:00pm 10.1 1.3 7.9 86 1.1 W 44 50 24 27 1018.9 - 0.0
23/04:30pm 10.6 1.8 8.2 85 1.2 W 44 50 24 27 1018.8 - 0.0
23/04:00pm 10.6 2.3 7.8 83 1.4 W 41 46 22 25 1018.9 - 0.0
23/03:30pm 11.0 2.2 8.0 82 1.5 W 44 48 24 26 1019.1 - 0.0
23/03:00pm 11.4 2.7 8.4 82 1.5 W 44 50 24 27 1019.2 1019.4 0.0
23/02:30pm 11.3 1.8 8.3 82 1.5 W 48 54 26 29 1019.5 - 0.0
23/02:00pm 11.2 2.4 8.1 81 1.5 W 44 52 24 28 1019.6 - 0.0
23/01:30pm 11.3 2.5 8.0 80 1.6 W 44 50 24 27 1020.0 - 0.0
23/01:00pm 12.0 3.5 8.7 80 1.7 W 43 50 23 27 1020.4 - 0.0
23/12:30pm 11.5 3.6 8.0 79 1.7 W 39 46 21 25 1021.0 - 0.0
23/12:00pm 11.0 4.8 7.7 80 1.6 WNW 30 37 16 20 1021.5 1021.6 0.0
23/11:30am 10.9 3.7 7.6 80 1.6 WNW 35 43 19 23 1022.0 - 0.0
23/11:00am 11.8 5.3 8.8 82 1.5 WNW 33 41 18 22 1022.4 - 0.0
23/10:30am 10.9 4.7 7.8 81 1.5 WNW 30 37 16 20 1022.8 - 0.0
23/10:00am 10.7 3.0 7.0 78 1.8 WNW 37 44 20 24 1022.8 - 0.0
23/09:30am 10.2 2.4 6.7 79 1.7 W 37 43 20 23 1023.1 - 0.0
23/09:00am 10.4 3.1 7.1 80 1.6 W 35 43 19 23 1023.2 1023.3 0.0
23/08:30am 9.6 1.8 6.5 81 1.5 W 37 50 20 27 1023.6 - 0.0
23/08:00am 9.5 1.6 6.4 81 1.4 W 37 46 20 25 1023.6 - 0.0
23/07:30am 9.1 2.0 6.2 82 1.3 W 33 44 18 24 1023.6 - 0.0
23/07:00am 9.1 1.2 6.2 82 1.3 W 37 44 20 24 1023.3 - 0.0
23/06:30am 8.8 1.6 5.9 82 1.3 W 33 41 18 22 1023.2 - 0.0
23/06:00am 8.8 0.0 5.7 81 1.4 W 41 50 22 27 1023.0 1023.1 0.0
23/05:30am 9.1 1.2 6.0 81 1.4 W 37 44 20 24 1022.8 - 0.0
23/05:00am 8.7 0.2 5.3 79 1.5 W 39 50 21 27 1022.9 - 0.0
23/04:30am 8.9 1.2 5.5 79 1.5 W 35 43 19 23 1022.9 - 0.0
23/04:00am 9.0 0.5 5.2 77 1.7 W 39 46 21 25 1023.1 - 0.0
23/03:30am 9.2 2.0 5.8 79 1.6 W 33 44 18 24 1023.2 - 0.0
23/03:00am 9.0 1.3 5.4 78 1.6 W 35 44 19 24 1023.4 1023.5 0.0
23/02:30am 9.2 2.0 5.8 79 1.6 W 33 43 18 23 1023.5 - 0.0
23/02:00am 8.6 0.0 4.8 77 1.7 W 39 44 21 24 1023.8 - 0.0
23/01:30am 8.5 0.3 4.7 77 1.7 WSW 37 46 20 25 1023.9 - 0.0
23/01:00am 8.7 -0.2 4.9 77 1.7 WSW 41 50 22 27 1024.0 - 0.0
23/12:30am 8.9 0.9 5.5 79 1.5 WSW 37 52 20 28 1024.1 - 0.0
23/12:00am 8.8 0.4 5.4 79 1.5 WSW 39 46 21 25 1024.1 1024.2 0.0
 
Date/Time
EST
Temp
°C
App
Temp
°C
Dew
Point
°C
Rel
Hum
%
Delta-T
°C
Wind Press
QNH
hPa
Press
MSL
hPa
Rain since
9am
mm
Dir  Spd
km/h
Gust
km/h
Spd
kts
Gust
kts
22/11:30pm 9.0 0.6 5.6 79 1.6 WSW 39 48 21 26 1024.0 - 0.0
22/11:00pm 8.9 -0.5 5.3 78 1.6 WSW 44 52 24 28 1024.0 - 0.0
22/10:30pm 8.9 -0.3 5.3 78 1.6 SW 43 52 23 28 1024.0 - 0.0
22/10:00pm 8.9 -1.1 4.5 74 2.0 WSW 46 54 25 29 1024.1 - 0.0
22/09:30pm 9.1 -1.2 4.5 73 2.0 WSW 48 56 26 30 1023.9 - 0.0
22/09:00pm 9.3 -0.5 5.1 75 1.9 WSW 46 54 25 29 1023.8 1023.9 0.0
22/08:30pm 9.2 -1.5 4.6 73 2.1 WSW 50 59 27 32 1023.6 - 0.0
22/08:00pm 9.4 -1.6 4.8 73 2.1 WSW 52 63 28 34 1023.3 - 0.0
22/07:30pm 9.5 -1.1 4.9 73 2.1 WSW 50 59 27 32 1023.0 - 0.0
22/07:00pm 9.3 -1.8 4.3 71 2.2 WSW 52 63 28 34 1022.7 - 0.0
22/06:30pm 9.3 -2.2 4.3 71 2.2 WSW 54 63 29 34 1022.2 - 0.0
22/06:00pm 9.3 -2.4 3.5 67 2.5 WSW 54 65 29 35 1022.2 1022.3 0.0
22/05:30pm 9.7 -2.1 4.7 71 2.2 WSW 56 69 30 37 1021.5 - 0.0
22/05:00pm 9.8 -2.2 4.0 67 2.6 WSW 56 65 30 35 1021.4 - 0.0
22/04:30pm 9.8 -1.8 3.8 66 2.6 WSW 54 63 29 34 1021.2 - 0.0
22/04:00pm 10.5 -1.0 4.2 65 2.8 WSW 54 65 29 35 1020.9 - 0.0
22/03:30pm 10.7 -0.6 3.5 61 3.2 WSW 52 61 28 33 1020.7 - 0.0
22/03:00pm 11.1 -0.3 5.0 66 2.8 WSW 54 65 29 35 1020.4 1020.5 0.0
22/02:30pm 10.9 -0.5 4.8 66 2.8 WSW 54 65 29 35 1020.5 - 0.0
22/02:00pm 10.9 -0.5 4.8 66 2.8 SW 54 65 29 35 1020.1 - 0.0
22/01:30pm 10.4 -3.1 4.8 68 2.5 WSW 65 76 35 41 1019.0 - 0.0
22/01:00pm 10.6 -2.2 4.7 67 2.7 WSW 61 70 33 38 1019.5 - 0.0
22/12:30pm 10.6 -2.0 5.4 70 2.4 WSW 61 72 33 39 1019.3 - 0.0
22/12:00pm 10.4 -1.6 5.0 69 2.5 WSW 57 72 31 39 1019.5 1019.7 0.0
22/11:49am 10.1 -2.3 4.9 70 2.4 WSW 59 78 32 42 1019.3 - 0.0
22/11:30am 10.2 -3.4 4.4 67 2.6 SW 65 74 35 40 1018.8 - 0.0
22/11:00am 10.1 -3.1 4.3 67 2.6 WSW 63 74 34 40 1018.9 - 0.0
22/10:30am 9.9 -4.2 3.6 65 2.8 SW 67 76 36 41 1018.5 - 0.0
22/10:00am 9.9 -4.0 4.5 69 2.4 SW 67 83 36 45 1018.2 - 0.0
22/09:35am 9.4 -4.1 4.8 73 2.1 SW 65 83 35 45 1017.8 - 0.0
22/09:30am 9.6 -4.1 5.6 76 1.8 SW 67 83 36 45 1017.6 - 0.0
22/09:00am 9.5 -4.3 5.1 74 2.0 SW 67 85 36 46 1017.2 1017.3 3.0
22/08:30am 9.2 -4.8 4.2 71 2.2 SW 67 80 36 43 1016.6 - 3.0
22/08:15am 9.0 -5.4 4.0 71 2.2 SW 69 87 37 47 1016.3 - 3.0
22/08:00am 8.8 -6.7 3.6 70 2.3 SW 74 87 40 47 1015.8 - 3.0
22/07:30am 8.8 -5.5 4.6 75 1.9 SW 69 83 37 45 1015.5 - 3.0
22/07:00am 8.9 -5.5 5.1 77 1.7 SW 70 87 38 47 1014.7 - 3.0
22/06:59am 8.8 -5.4 5.2 78 1.6 SW 69 87 37 47 1014.8 - 3.0
22/06:30am 9.0 -5.7 5.6 79 1.6 WSW 72 87 39 47 1014.1 - 3.0
22/06:17am 9.0 -5.1 5.7 80 1.5 SW 69 87 37 47 1013.9 - 3.0
22/06:00am 8.9 -7.0 5.1 77 1.7 SW 78 91 42 49 1013.6 1013.7 3.0
22/05:42am 8.9 -6.6 5.1 77 1.7 SW 76 95 41 51 1013.0 - 3.0
22/05:30am 8.9 -7.8 4.9 76 1.8 SW 82 95 44 51 1012.9 - 3.0
22/05:18am 9.2 -7.2 6.3 82 1.3 WSW 82 100 44 54 1012.8 - 3.0
22/05:00am 9.1 -8.0 6.0 81 1.4 WSW 85 100 46 54 1011.9 - 3.0
22/04:30am 9.0 -9.6 5.9 81 1.4 WSW 93 113 50 61 1011.1 - 3.0
22/04:04am 9.1 -9.7 6.7 85 1.1 WSW 95 113 51 61 1010.4 - 3.0
22/04:00am 8.9 -10.5 6.5 85 1.1 WSW 98 113 53 61 1010.3 - 3.0
22/03:30am 8.5 -12.5 6.3 86 1.0 WSW 106 124 57 67 1008.9 - 3.0
22/03:00am 9.4 -11.7 5.8 78 1.7 WSW 106 126 57 68 1008.6 1008.7 3.0
22/02:30am 9.6 -10.8 5.4 75 1.9 WSW 102 122 55 66 1008.5 - 3.0
22/02:00am 9.7 -10.7 7.3 85 1.1 WSW 104 122 56 66 1008.1 - 3.0
22/01:30am 9.9 -10.9 9.3 96 0.3 WSW 109 133 59 72 1006.8 - 3.0
22/01:00am 9.7 -11.7 8.8 94 0.4 WSW 111 135 60 73 1006.0 - 2.8
22/12:31am 10.5 -8.4 10.3 99 0.1 W 100 139 54 75 1005.6 - 2.8
22/12:30am 10.5 -12.2 10.3 99 0.1 W 120 139 65 75 1005.5 - 2.8
22/12:00am 10.3 -9.9 10.3 100 0.0 W 107 130 58 70 1004.9 1005.0 2.8
 
Date/Time
EST
Temp
°C
App
Temp
°C
Dew
Point
°C
Rel
Hum
%
Delta-T
°C
Wind Press
QNH
hPa
Press
MSL
hPa
Rain since
9am
mm
Dir  Spd
km/h
Gust
km/h
Spd
kts
Gust
kts
21/11:32pm 11.2 -9.5 11.2 100 0.0 W 111 132 60 71 1003.9 - 2.8
21/11:30pm 11.2 -9.5 11.2 100 0.0 W 111 128 60 69 1003.9 - 2.8
21/11:00pm 11.4 - 11.6 - - W 107 133 58 72 1004.3 - 2.8
21/10:30pm 11.1 - 11.2 - - W 104 126 56 68 1004.6 - 2.6
21/10:00pm 10.7 - 10.8 - - W 102 124 55 67 1004.6 - 2.6
21/09:30pm 11.1 - 11.2 - - W 109 128 59 69 1004.9 - 2.6
21/09:08pm 10.7 - 10.8 - - W 111 132 60 71 1004.6 - 2.6
21/09:03pm 10.6 - 10.7 - - W 85 107 46 58 1004.9 - 2.2
21/09:00pm 10.6 - 10.7 - - W 80 95 43 51 1005.6 1005.7 2.2
21/08:30pm 9.9 - 10.0 - - W 78 95 42 51 1007.2 - 1.0
21/08:11pm 9.6 - 9.7 - - W 80 107 43 58 1007.9 - 0.8
21/08:00pm 9.7 - 9.8 - - W 100 119 54 64 1007.2 - 0.8
21/07:30pm 9.9 -7.0 9.9 100 0.0 W 89 109 48 59 1008.3 - 0.2
21/07:18pm 9.4 -7.2 9.4 100 0.0 W 87 107 47 58 1008.2 - 0.2
21/07:00pm 10.8 -5.1 10.6 99 0.1 W 85 100 46 54 1008.8 - 0.2
21/06:40pm 10.9 -5.4 10.6 98 0.2 W 87 106 47 57 1009.1 - 0.2
21/06:30pm 10.7 -6.4 10.5 99 0.1 W 91 107 49 58 1009.1 - 0.2
21/06:03pm 11.1 -5.9 9.5 90 0.8 W 89 107 48 58 1009.3 - 0.0
21/06:00pm 11.2 -6.5 9.6 90 0.8 W 93 109 50 59 1009.5 1009.6 0.0
21/05:39pm 11.0 -6.3 9.9 93 0.6 W 91 109 49 59 1009.1 - 0.0
21/05:30pm 10.9 -6.0 9.8 93 0.6 W 89 106 48 57 1009.4 - 0.0
21/05:00pm 10.4 -6.4 10.2 99 0.1 W 89 107 48 58 1009.2 - 0.0
21/04:30pm 11.1 -7.2 9.0 87 1.0 W 95 109 51 59 1008.9 - 0.0
21/04:10pm 10.9 -6.5 9.2 89 0.9 W 91 111 49 60 1009.3 - 0.0
21/04:00pm 11.2 -6.5 8.4 83 1.4 W 91 107 49 58 1009.8 - 0.0
21/03:35pm 11.4 -6.5 9.0 85 1.2 W 93 111 50 60 1009.9 - 0.0
21/03:30pm 11.5 -6.3 9.2 86 1.2 W 93 109 50 59 1009.9 - 0.0
21/03:00pm 11.4 -5.8 8.6 83 1.4 W 89 109 48 59 1009.8 1009.9 0.0
21/02:58pm 11.7 -5.9 8.7 82 1.5 W 91 109 49 59 1010.0 - 0.0
21/02:30pm 11.7 -6.6 8.9 83 1.4 W 95 111 51 60 1009.7 - 0.0
21/02:04pm 11.8 -7.0 9.0 83 1.4 W 98 117 53 63 1009.8 - 0.0
21/02:00pm 11.8 -7.5 8.5 80 1.6 W 100 117 54 63 1009.5 - 0.0
21/01:30pm 11.7 -6.7 9.3 85 1.2 W 96 115 52 62 1009.3 - 0.0
21/01:00pm 12.1 -6.9 8.4 78 1.8 W 98 117 53 63 1009.9 - 0.0
21/12:33pm 12.0 -7.1 9.4 84 1.3 W 100 119 54 64 1010.1 - 0.0
21/12:30pm 11.7 -8.2 9.1 84 1.3 W 104 120 56 65 1009.8 - 0.0
21/12:00pm 11.6 -8.3 9.3 86 1.2 W 104 126 56 68 1009.4 1009.5 0.0
21/11:41am 11.6 -6.7 9.7 88 1.0 W 96 119 52 64 1009.3 - 0.0
21/11:30am 12.0 -5.7 9.7 86 1.2 W 93 107 50 58 1010.4 - 0.0
21/11:00am 11.9 -6.3 9.3 84 1.3 W 95 113 51 61 1010.0 - 0.0
21/10:36am 11.1 -5.5 9.4 89 0.9 W 87 109 47 59 1010.4 - 0.0
21/10:30am 11.5 -4.4 9.4 87 1.1 W 83 98 45 53 1010.6 - 0.0
21/10:01am 11.5 -7.4 8.7 83 1.4 W 98 117 53 63 1009.9 - 0.0
21/10:00am 11.6 -6.9 9.0 84 1.3 W 96 113 52 61 1009.9 - 0.0
21/09:38am 11.2 -5.5 10.7 97 0.3 W 89 109 48 59 1009.8 - 0.0
21/09:30am 10.5 -6.1 9.6 94 0.5 W 87 100 47 54 1010.3 - 0.0
21/09:00am 11.2 -7.4 9.9 92 0.7 W 98 117 53 63 1009.9 1010.0 13.2

Other formats

Comma delimited format used in spreadsheet applications
http://www.bom.gov.au/fwo/IDV60801/IDV60801.94949.axf

JavaScript Object Notation format (JSON) in row-major order
http://www.bom.gov.au/fwo/IDV60801/IDV60801.94949.json

Data quality

Most of these data are generated automatically and are frequently updated. Quality checks on data are not normally performed. It is possible for incorrect values to appear. Refer to information at About Latest Weather Observations and please check the disclaimer before using these data.